sensor_id;sensor_type;location;lat;lon;timestamp;temperature;humidity
51619;DHT22;38518;53.164;5.430;2023-06-26T00:01:19;21.70;1.00
51619;DHT22;38518;53.164;5.430;2023-06-26T00:03:46;21.70;1.00
51619;DHT22;38518;53.164;5.430;2023-06-26T00:06:12;21.60;1.00
51619;DHT22;38518;53.164;5.430;2023-06-26T00:08:38;21.90;1.00
51619;DHT22;38518;53.164;5.430;2023-06-26T00:11:04;21.70;1.00
51619;DHT22;38518;53.164;5.430;2023-06-26T00:13:30;21.70;1.00
51619;DHT22;38518;53.164;5.430;2023-06-26T00:15:55;21.70;1.00
51619;DHT22;38518;53.164;5.430;2023-06-26T00:18:21;21.70;1.00
51619;DHT22;38518;53.164;5.430;2023-06-26T00:20:48;21.70;1.00
51619;DHT22;38518;53.164;5.430;2023-06-26T00:23:16;21.70;1.00
51619;DHT22;38518;53.164;5.430;2023-06-26T00:25:43;21.80;1.00
51619;DHT22;38518;53.164;5.430;2023-06-26T00:28:09;21.60;1.00
51619;DHT22;38518;53.164;5.430;2023-06-26T00:30:35;21.80;1.00
51619;DHT22;38518;53.164;5.430;2023-06-26T00:33:01;21.80;1.00
51619;DHT22;38518;53.164;5.430;2023-06-26T00:35:26;21.80;1.00
51619;DHT22;38518;53.164;5.430;2023-06-26T00:37:52;21.80;1.00
51619;DHT22;38518;53.164;5.430;2023-06-26T00:40:18;21.90;1.00
51619;DHT22;38518;53.164;5.430;2023-06-26T00:42:44;20.80;1.00
51619;DHT22;38518;53.164;5.430;2023-06-26T00:45:10;21.90;1.00
51619;DHT22;38518;53.164;5.430;2023-06-26T00:47:37;21.80;1.00
51619;DHT22;38518;53.164;5.430;2023-06-26T00:50:02;21.80;1.00
51619;DHT22;38518;53.164;5.430;2023-06-26T00:52:29;21.80;1.00
51619;DHT22;38518;53.164;5.430;2023-06-26T00:54:55;21.80;1.00
51619;DHT22;38518;53.164;5.430;2023-06-26T00:57:21;21.90;1.00
51619;DHT22;38518;53.164;5.430;2023-06-26T00:59:48;21.80;1.00
51619;DHT22;38518;53.164;5.430;2023-06-26T01:02:14;21.80;1.00
51619;DHT22;38518;53.164;5.430;2023-06-26T01:04:43;21.90;1.00
51619;DHT22;38518;53.164;5.430;2023-06-26T01:07:13;21.90;1.00
51619;DHT22;38518;53.164;5.430;2023-06-26T01:09:39;21.90;1.00
51619;DHT22;38518;53.164;5.430;2023-06-26T01:12:05;21.90;1.00
51619;DHT22;38518;53.164;5.430;2023-06-26T01:14:31;22.00;1.00
51619;DHT22;38518;53.164;5.430;2023-06-26T01:17:00;22.00;1.00
51619;DHT22;38518;53.164;5.430;2023-06-26T01:19:28;22.20;1.00
51619;DHT22;38518;53.164;5.430;2023-06-26T01:22:00;22.30;1.00
51619;DHT22;38518;53.164;5.430;2023-06-26T01:24:33;22.60;1.00
51619;DHT22;38518;53.164;5.430;2023-06-26T01:27:03;22.80;1.00
51619;DHT22;38518;53.164;5.430;2023-06-26T01:29:31;22.90;1.00
51619;DHT22;38518;53.164;5.430;2023-06-26T01:31:57;23.00;1.00
51619;DHT22;38518;53.164;5.430;2023-06-26T01:34:23;23.10;1.00
51619;DHT22;38518;53.164;5.430;2023-06-26T01:36:49;23.10;1.00
51619;DHT22;38518;53.164;5.430;2023-06-26T01:39:18;23.10;1.00
51619;DHT22;38518;53.164;5.430;2023-06-26T01:41:43;23.10;1.00
51619;DHT22;38518;53.164;5.430;2023-06-26T01:47:03;23.10;1.00
51619;DHT22;38518;53.164;5.430;2023-06-26T01:52:14;23.00;1.00
51619;DHT22;38518;53.164;5.430;2023-06-26T01:57:43;22.80;1.00
51619;DHT22;38518;53.164;5.430;2023-06-26T02:00:11;22.60;1.00
51619;DHT22;38518;53.164;5.430;2023-06-26T02:02:38;22.60;1.00
51619;DHT22;38518;53.164;5.430;2023-06-26T02:05:06;22.40;1.00
51619;DHT22;38518;53.164;5.430;2023-06-26T02:07:32;22.40;1.00
51619;DHT22;38518;53.164;5.430;2023-06-26T02:09:57;22.10;1.00
51619;DHT22;38518;53.164;5.430;2023-06-26T02:12:23;22.10;1.00
51619;DHT22;38518;53.164;5.430;2023-06-26T02:14:49;21.20;1.00
51619;DHT22;38518;53.164;5.430;2023-06-26T02:17:15;21.90;1.00
51619;DHT22;38518;53.164;5.430;2023-06-26T02:19:41;21.90;1.00
51619;DHT22;38518;53.164;5.430;2023-06-26T02:22:16;21.70;1.00
51619;DHT22;38518;53.164;5.430;2023-06-26T02:24:43;21.70;1.00
51619;DHT22;38518;53.164;5.430;2023-06-26T02:27:09;21.60;1.00
51619;DHT22;38518;53.164;5.430;2023-06-26T02:29:35;21.50;1.00
51619;DHT22;38518;53.164;5.430;2023-06-26T02:32:01;21.50;1.00
51619;DHT22;38518;53.164;5.430;2023-06-26T02:34:27;21.50;1.00
51619;DHT22;38518;53.164;5.430;2023-06-26T02:36:53;21.40;1.00
51619;DHT22;38518;53.164;5.430;2023-06-26T02:39:22;21.40;1.00
51619;DHT22;38518;53.164;5.430;2023-06-26T02:41:48;21.40;1.00
51619;DHT22;38518;53.164;5.430;2023-06-26T02:44:13;21.40;1.00
51619;DHT22;38518;53.164;5.430;2023-06-26T02:46:40;21.30;1.00
51619;DHT22;38518;53.164;5.430;2023-06-26T02:49:06;21.30;1.00
51619;DHT22;38518;53.164;5.430;2023-06-26T02:51:33;21.30;1.00
51619;DHT22;38518;53.164;5.430;2023-06-26T02:53:59;21.70;1.00
51619;DHT22;38518;53.164;5.430;2023-06-26T02:56:25;21.20;1.00
51619;DHT22;38518;53.164;5.430;2023-06-26T02:58:57;21.10;1.00
51619;DHT22;38518;53.164;5.430;2023-06-26T03:01:23;21.10;1.00
51619;DHT22;38518;53.164;5.430;2023-06-26T03:03:49;20.50;1.00
51619;DHT22;38518;53.164;5.430;2023-06-26T03:06:15;21.10;1.00
51619;DHT22;38518;53.164;5.430;2023-06-26T03:08:41;21.00;1.00
51619;DHT22;38518;53.164;5.430;2023-06-26T03:11:08;21.00;1.00
51619;DHT22;38518;53.164;5.430;2023-06-26T03:13:37;20.50;1.00
51619;DHT22;38518;53.164;5.430;2023-06-26T03:16:03;22.10;1.00
51619;DHT22;38518;53.164;5.430;2023-06-26T03:18:29;20.90;1.00
51619;DHT22;38518;53.164;5.430;2023-06-26T03:20:56;20.90;1.00
51619;DHT22;38518;53.164;5.430;2023-06-26T03:23:23;20.80;1.00
51619;DHT22;38518;53.164;5.430;2023-06-26T03:25:49;20.80;1.00
51619;DHT22;38518;53.164;5.430;2023-06-26T03:28:15;20.70;1.00
51619;DHT22;38518;53.164;5.430;2023-06-26T03:30:41;20.60;1.00
51619;DHT22;38518;53.164;5.430;2023-06-26T03:33:07;20.60;1.00
51619;DHT22;38518;53.164;5.430;2023-06-26T03:35:32;20.60;1.00
51619;DHT22;38518;53.164;5.430;2023-06-26T03:37:58;20.50;1.00
51619;DHT22;38518;53.164;5.430;2023-06-26T03:40:24;20.50;1.00
51619;DHT22;38518;53.164;5.430;2023-06-26T03:42:50;20.50;2.20
51619;DHT22;38518;53.164;5.430;2023-06-26T03:45:16;20.60;7.30
51619;DHT22;38518;53.164;5.430;2023-06-26T03:47:41;19.30;11.30
51619;DHT22;38518;53.164;5.430;2023-06-26T03:50:08;20.40;5.90
51619;DHT22;38518;53.164;5.430;2023-06-26T03:52:33;20.40;8.50
51619;DHT22;38518;53.164;5.430;2023-06-26T03:55:00;20.40;13.30
51619;DHT22;38518;53.164;5.430;2023-06-26T03:57:26;20.30;15.30
51619;DHT22;38518;53.164;5.430;2023-06-26T03:59:52;20.20;16.20
51619;DHT22;38518;53.164;5.430;2023-06-26T04:07:45;20.50;1.00
51619;DHT22;38518;53.164;5.430;2023-06-26T04:10:10;20.10;1.00
51619;DHT22;38518;53.164;5.430;2023-06-26T04:15:53;20.00;1.00
51619;DHT22;38518;53.164;5.430;2023-06-26T04:18:18;19.90;1.00
51619;DHT22;38518;53.164;5.430;2023-06-26T04:23:33;19.80;1.00
51619;DHT22;38518;53.164;5.430;2023-06-26T04:25:59;19.70;1.00
51619;DHT22;38518;53.164;5.430;2023-06-26T04:28:25;19.90;1.00
51619;DHT22;38518;53.164;5.430;2023-06-26T04:30:50;19.80;1.00
51619;DHT22;38518;53.164;5.430;2023-06-26T04:33:16;19.70;1.00
51619;DHT22;38518;53.164;5.430;2023-06-26T04:35:42;19.90;1.00
51619;DHT22;38518;53.164;5.430;2023-06-26T04:38:10;20.00;1.00
51619;DHT22;38518;53.164;5.430;2023-06-26T04:40:36;19.70;1.00
51619;DHT22;38518;53.164;5.430;2023-06-26T04:43:02;19.70;1.00
51619;DHT22;38518;53.164;5.430;2023-06-26T04:45:28;19.60;1.00
51619;DHT22;38518;53.164;5.430;2023-06-26T04:47:54;19.80;1.00
51619;DHT22;38518;53.164;5.430;2023-06-26T04:50:19;19.60;1.00
51619;DHT22;38518;53.164;5.430;2023-06-26T04:52:45;19.90;1.00
51619;DHT22;38518;53.164;5.430;2023-06-26T04:55:11;19.90;1.00
51619;DHT22;38518;53.164;5.430;2023-06-26T04:57:36;19.80;1.00
51619;DHT22;38518;53.164;5.430;2023-06-26T05:00:03;19.70;1.00
51619;DHT22;38518;53.164;5.430;2023-06-26T05:02:31;19.60;1.00
51619;DHT22;38518;53.164;5.430;2023-06-26T05:04:57;19.80;1.00
51619;DHT22;38518;53.164;5.430;2023-06-26T05:07:22;19.70;1.00
51619;DHT22;38518;53.164;5.430;2023-06-26T05:09:48;20.00;1.00
51619;DHT22;38518;53.164;5.430;2023-06-26T05:12:14;20.20;1.00
51619;DHT22;38518;53.164;5.430;2023-06-26T05:14:40;19.90;1.00
51619;DHT22;38518;53.164;5.430;2023-06-26T05:17:05;20.10;1.00
51619;DHT22;38518;53.164;5.430;2023-06-26T05:19:31;20.00;1.00
51619;DHT22;38518;53.164;5.430;2023-06-26T05:21:57;19.90;1.00
51619;DHT22;38518;53.164;5.430;2023-06-26T05:24:24;20.10;1.00
51619;DHT22;38518;53.164;5.430;2023-06-26T05:26:51;20.10;1.00
51619;DHT22;38518;53.164;5.430;2023-06-26T05:29:17;20.10;1.00
51619;DHT22;38518;53.164;5.430;2023-06-26T05:31:44;20.10;1.00
51619;DHT22;38518;53.164;5.430;2023-06-26T05:34:11;20.00;1.00
51619;DHT22;38518;53.164;5.430;2023-06-26T05:36:39;20.00;1.00
51619;DHT22;38518;53.164;5.430;2023-06-26T05:39:06;20.40;1.00
51619;DHT22;38518;53.164;5.430;2023-06-26T05:41:32;20.20;1.00
51619;DHT22;38518;53.164;5.430;2023-06-26T05:43:58;20.20;1.00
51619;DHT22;38518;53.164;5.430;2023-06-26T05:46:24;19.30;1.00
51619;DHT22;38518;53.164;5.430;2023-06-26T05:48:49;20.40;1.00
51619;DHT22;38518;53.164;5.430;2023-06-26T05:51:15;20.50;1.00
51619;DHT22;38518;53.164;5.430;2023-06-26T05:53:41;20.60;1.00
51619;DHT22;38518;53.164;5.430;2023-06-26T05:56:07;20.50;1.00
51619;DHT22;38518;53.164;5.430;2023-06-26T05:58:34;20.60;1.00
51619;DHT22;38518;53.164;5.430;2023-06-26T06:01:00;20.80;20.60
51619;DHT22;38518;53.164;5.430;2023-06-26T06:03:25;20.70;16.00
51619;DHT22;38518;53.164;5.430;2023-06-26T06:05:51;21.20;65.50
51619;DHT22;38518;53.164;5.430;2023-06-26T06:08:17;21.10;45.90
51619;DHT22;38518;53.164;5.430;2023-06-26T06:10:43;20.80;55.00
51619;DHT22;38518;53.164;5.430;2023-06-26T06:13:08;21.30;3.10
51619;DHT22;38518;53.164;5.430;2023-06-26T06:15:34;21.50;20.90
51619;DHT22;38518;53.164;5.430;2023-06-26T06:18:00;21.70;42.60
51619;DHT22;38518;53.164;5.430;2023-06-26T06:22:53;22.30;11.60
51619;DHT22;38518;53.164;5.430;2023-06-26T06:25:18;22.10;4.10
51619;DHT22;38518;53.164;5.430;2023-06-26T06:30:11;22.40;10.60
51619;DHT22;38518;53.164;5.430;2023-06-26T06:32:37;21.80;15.10
51619;DHT22;38518;53.164;5.430;2023-06-26T06:35:03;22.80;35.30
51619;DHT22;38518;53.164;5.430;2023-06-26T06:37:37;22.60;1.00
51619;DHT22;38518;53.164;5.430;2023-06-26T06:40:05;22.80;1.00
51619;DHT22;38518;53.164;5.430;2023-06-26T06:42:32;22.40;46.20
51619;DHT22;38518;53.164;5.430;2023-06-26T06:44:58;22.30;1.00
51619;DHT22;38518;53.164;5.430;2023-06-26T06:47:24;22.50;3.80
51619;DHT22;38518;53.164;5.430;2023-06-26T06:49:50;22.80;1.00
51619;DHT22;38518;53.164;5.430;2023-06-26T06:52:15;23.00;1.00
51619;DHT22;38518;53.164;5.430;2023-06-26T06:54:57;22.90;5.60
51619;DHT22;38518;53.164;5.430;2023-06-26T06:57:30;24.80;10.90
51619;DHT22;38518;53.164;5.430;2023-06-26T06:59:56;24.50;1.00
51619;DHT22;38518;53.164;5.430;2023-06-26T07:02:22;23.50;1.00
51619;DHT22;38518;53.164;5.430;2023-06-26T07:04:48;23.80;1.00
51619;DHT22;38518;53.164;5.430;2023-06-26T07:07:14;23.40;1.00
51619;DHT22;38518;53.164;5.430;2023-06-26T07:09:39;24.50;1.00
51619;DHT22;38518;53.164;5.430;2023-06-26T07:12:05;23.30;1.00
51619;DHT22;38518;53.164;5.430;2023-06-26T07:14:31;23.10;1.00
51619;DHT22;38518;53.164;5.430;2023-06-26T07:16:57;23.60;1.00
51619;DHT22;38518;53.164;5.430;2023-06-26T07:19:22;22.80;1.00
51619;DHT22;38518;53.164;5.430;2023-06-26T07:21:48;23.00;1.00
51619;DHT22;38518;53.164;5.430;2023-06-26T07:24:14;22.70;45.10
51619;DHT22;38518;53.164;5.430;2023-06-26T07:26:39;22.40;46.00
51619;DHT22;38518;53.164;5.430;2023-06-26T07:29:05;22.00;56.10
51619;DHT22;38518;53.164;5.430;2023-06-26T07:31:31;22.20;71.10
51619;DHT22;38518;53.164;5.430;2023-06-26T07:33:57;22.70;55.80
51619;DHT22;38518;53.164;5.430;2023-06-26T07:36:22;22.30;48.80
51619;DHT22;38518;53.164;5.430;2023-06-26T07:38:48;22.30;44.50
51619;DHT22;38518;53.164;5.430;2023-06-26T07:41:14;22.50;39.20
51619;DHT22;38518;53.164;5.430;2023-06-26T07:43:41;23.20;42.40
51619;DHT22;38518;53.164;5.430;2023-06-26T07:46:09;23.10;40.70
51619;DHT22;38518;53.164;5.430;2023-06-26T07:48:35;22.80;29.70
51619;DHT22;38518;53.164;5.430;2023-06-26T07:51:00;23.40;13.40
51619;DHT22;38518;53.164;5.430;2023-06-26T07:53:28;23.40;1.00
51619;DHT22;38518;53.164;5.430;2023-06-26T07:55:54;23.60;1.00
51619;DHT22;38518;53.164;5.430;2023-06-26T07:58:22;23.60;1.00
51619;DHT22;38518;53.164;5.430;2023-06-26T08:00:48;23.50;1.00
51619;DHT22;38518;53.164;5.430;2023-06-26T08:03:14;23.90;1.00
51619;DHT22;38518;53.164;5.430;2023-06-26T08:05:40;24.00;1.00
51619;DHT22;38518;53.164;5.430;2023-06-26T08:08:05;24.20;1.00
51619;DHT22;38518;53.164;5.430;2023-06-26T08:10:32;24.30;1.00
51619;DHT22;38518;53.164;5.430;2023-06-26T08:12:57;24.60;1.00
51619;DHT22;38518;53.164;5.430;2023-06-26T08:15:23;24.10;1.00
51619;DHT22;38518;53.164;5.430;2023-06-26T08:17:49;23.80;1.00
51619;DHT22;38518;53.164;5.430;2023-06-26T08:20:16;24.00;1.00
51619;DHT22;38518;53.164;5.430;2023-06-26T08:22:42;24.00;1.00
51619;DHT22;38518;53.164;5.430;2023-06-26T08:27:34;24.10;1.00
51619;DHT22;38518;53.164;5.430;2023-06-26T08:29:59;24.20;1.00
51619;DHT22;38518;53.164;5.430;2023-06-26T08:32:25;24.40;11.90
51619;DHT22;38518;53.164;5.430;2023-06-26T08:34:51;24.60;1.00
51619;DHT22;38518;53.164;5.430;2023-06-26T08:37:16;25.00;1.00
51619;DHT22;38518;53.164;5.430;2023-06-26T08:39:42;24.90;1.00
51619;DHT22;38518;53.164;5.430;2023-06-26T08:42:08;24.60;1.00
51619;DHT22;38518;53.164;5.430;2023-06-26T08:44:34;24.30;1.00
51619;DHT22;38518;53.164;5.430;2023-06-26T08:47:00;24.20;1.00
51619;DHT22;38518;53.164;5.430;2023-06-26T08:52:19;24.10;1.00
51619;DHT22;38518;53.164;5.430;2023-06-26T08:54:55;24.30;1.00
51619;DHT22;38518;53.164;5.430;2023-06-26T08:57:23;24.70;1.00
51619;DHT22;38518;53.164;5.430;2023-06-26T08:59:49;26.30;1.00
51619;DHT22;38518;53.164;5.430;2023-06-26T09:02:15;25.00;1.00
51619;DHT22;38518;53.164;5.430;2023-06-26T09:04:41;25.10;1.00
51619;DHT22;38518;53.164;5.430;2023-06-26T09:07:07;24.90;1.00
51619;DHT22;38518;53.164;5.430;2023-06-26T09:09:33;25.00;2.40
51619;DHT22;38518;53.164;5.430;2023-06-26T09:12:00;25.60;7.40
51619;DHT22;38518;53.164;5.430;2023-06-26T09:14:27;25.80;1.00
51619;DHT22;38518;53.164;5.430;2023-06-26T09:16:53;26.00;40.50
51619;DHT22;38518;53.164;5.430;2023-06-26T09:19:18;25.60;1.00
51619;DHT22;38518;53.164;5.430;2023-06-26T09:21:44;25.50;1.00
51619;DHT22;38518;53.164;5.430;2023-06-26T09:26:38;25.50;37.90
51619;DHT22;38518;53.164;5.430;2023-06-26T09:29:05;26.00;32.40
51619;DHT22;38518;53.164;5.430;2023-06-26T09:31:33;26.00;1.00
51619;DHT22;38518;53.164;5.430;2023-06-26T09:33:59;26.20;1.00
51619;DHT22;38518;53.164;5.430;2023-06-26T09:36:28;26.50;3.90
51619;DHT22;38518;53.164;5.430;2023-06-26T09:38:54;26.30;93.50
51619;DHT22;38518;53.164;5.430;2023-06-26T09:41:20;26.40;1.00
51619;DHT22;38518;53.164;5.430;2023-06-26T09:43:50;26.50;1.00
51619;DHT22;38518;53.164;5.430;2023-06-26T09:46:26;27.00;1.00
51619;DHT22;38518;53.164;5.430;2023-06-26T09:49:07;27.10;4.30
51619;DHT22;38518;53.164;5.430;2023-06-26T09:51:34;27.10;4.30
51619;DHT22;38518;53.164;5.430;2023-06-26T09:54:04;27.20;79.20
51619;DHT22;38518;53.164;5.430;2023-06-26T09:56:30;26.80;6.50
51619;DHT22;38518;53.164;5.430;2023-06-26T09:58:58;27.20;5.20
51619;DHT22;38518;53.164;5.430;2023-06-26T10:01:25;27.30;21.00
51619;DHT22;38518;53.164;5.430;2023-06-26T10:03:51;27.20;15.40
51619;DHT22;38518;53.164;5.430;2023-06-26T10:06:22;27.40;16.60
51619;DHT22;38518;53.164;5.430;2023-06-26T10:08:50;27.70;1.00
51619;DHT22;38518;53.164;5.430;2023-06-26T10:11:20;27.60;1.00
